sensor_id;sensor_type;location;lat;lon;timestamp;pressure;altitude;pressure_sealevel;temperature;humidity
1401;BME280;46518;48.842;8.926;2023-03-03T00:01:15;97314.34;;;3.92;70.96
1401;BME280;46518;48.842;8.926;2023-03-03T00:03:45;97323.97;;;3.98;71.35
1401;BME280;46518;48.842;8.926;2023-03-03T00:06:14;97318.16;;;3.96;71.39
1401;BME280;46518;48.842;8.926;2023-03-03T00:08:41;97318.56;;;3.99;71.43
1401;BME280;46518;48.842;8.926;2023-03-03T00:11:10;97316.34;;;3.96;71.42
1401;BME280;46518;48.842;8.926;2023-03-03T00:13:43;97320.16;;;3.94;71.54
1401;BME280;46518;48.842;8.926;2023-03-03T00:16:16;97312.72;;;3.84;71.50
1401;BME280;46518;48.842;8.926;2023-03-03T00:18:46;97312.88;;;3.69;71.15
1401;BME280;46518;48.842;8.926;2023-03-03T00:21:26;97320.09;;;3.67;71.19
1401;BME280;46518;48.842;8.926;2023-03-03T00:24:10;97320.69;;;3.62;71.77
1401;BME280;46518;48.842;8.926;2023-03-03T00:26:43;97322.47;;;3.55;71.50
1401;BME280;46518;48.842;8.926;2023-03-03T00:29:28;97329.03;;;3.51;72.05
1401;BME280;46518;48.842;8.926;2023-03-03T00:32:11;97328.66;;;3.48;71.82
1401;BME280;46518;48.842;8.926;2023-03-03T00:34:44;97325.63;;;3.44;72.28
1401;BME280;46518;48.842;8.926;2023-03-03T00:37:30;97322.41;;;3.42;72.78
1401;BME280;46518;48.842;8.926;2023-03-03T00:40:17;97328.16;;;3.31;73.36
1401;BME280;46518;48.842;8.926;2023-03-03T00:42:49;97319.66;;;3.09;74.05
1401;BME280;46518;48.842;8.926;2023-03-03T00:45:30;97324.94;;;3.29;73.65
1401;BME280;46518;48.842;8.926;2023-03-03T00:48:00;97318.72;;;3.23;74.25
1401;BME280;46518;48.842;8.926;2023-03-03T00:50:38;97321.28;;;3.16;73.73
1401;BME280;46518;48.842;8.926;2023-03-03T00:53:10;97317.72;;;3.17;73.76
1401;BME280;46518;48.842;8.926;2023-03-03T00:55:39;97319.09;;;3.13;73.47
1401;BME280;46518;48.842;8.926;2023-03-03T00:58:07;97314.88;;;3.12;73.87
1401;BME280;46518;48.842;8.926;2023-03-03T01:00:40;97313.94;;;2.85;73.31
1401;BME280;46518;48.842;8.926;2023-03-03T01:03:13;97316.72;;;2.84;73.92
1401;BME280;46518;48.842;8.926;2023-03-03T01:05:44;97315.31;;;2.53;75.90
1401;BME280;46518;48.842;8.926;2023-03-03T01:08:12;97317.81;;;2.68;76.08
1401;BME280;46518;48.842;8.926;2023-03-03T01:10:41;97299.41;;;2.69;75.11
1401;BME280;46518;48.842;8.926;2023-03-03T01:13:11;97303.44;;;2.72;74.90
1401;BME280;46518;48.842;8.926;2023-03-03T01:15:40;97302.41;;;2.66;75.13
1401;BME280;46518;48.842;8.926;2023-03-03T01:18:08;97307.19;;;2.63;75.29
1401;BME280;46518;48.842;8.926;2023-03-03T01:20:37;97309.47;;;2.72;74.98
1401;BME280;46518;48.842;8.926;2023-03-03T01:23:07;97305.69;;;2.75;75.57
1401;BME280;46518;48.842;8.926;2023-03-03T01:25:35;97309.31;;;2.80;76.24
1401;BME280;46518;48.842;8.926;2023-03-03T01:28:04;97301.34;;;2.89;76.90
1401;BME280;46518;48.842;8.926;2023-03-03T01:30:32;97301.19;;;2.97;76.41
1401;BME280;46518;48.842;8.926;2023-03-03T01:33:00;97311.28;;;3.13;76.07
1401;BME280;46518;48.842;8.926;2023-03-03T01:35:29;97313.88;;;3.13;75.28
1401;BME280;46518;48.842;8.926;2023-03-03T01:37:57;97311.69;;;3.10;75.47
1401;BME280;46518;48.842;8.926;2023-03-03T01:40:28;97317.53;;;3.26;75.51
1401;BME280;46518;48.842;8.926;2023-03-03T01:42:58;97317.38;;;3.27;73.92
1401;BME280;46518;48.842;8.926;2023-03-03T01:45:27;97320.19;;;3.32;73.96
1401;BME280;46518;48.842;8.926;2023-03-03T01:47:59;97314.16;;;3.32;74.31
1401;BME280;46518;48.842;8.926;2023-03-03T01:50:39;97311.72;;;3.23;74.07
1401;BME280;46518;48.842;8.926;2023-03-03T01:53:13;97305.47;;;3.11;74.17
1401;BME280;46518;48.842;8.926;2023-03-03T01:55:44;97303.28;;;3.15;74.68
1401;BME280;46518;48.842;8.926;2023-03-03T01:58:16;97297.09;;;3.16;74.06
1401;BME280;46518;48.842;8.926;2023-03-03T02:00:47;97292.69;;;3.10;74.12
1401;BME280;46518;48.842;8.926;2023-03-03T02:03:18;97290.88;;;2.75;74.90
1401;BME280;46518;48.842;8.926;2023-03-03T02:05:48;97295.88;;;2.77;75.40
1401;BME280;46518;48.842;8.926;2023-03-03T02:08:20;97281.38;;;2.61;76.35
1401;BME280;46518;48.842;8.926;2023-03-03T02:10:51;97282.00;;;2.63;76.96
1401;BME280;46518;48.842;8.926;2023-03-03T02:13:20;97278.88;;;2.74;76.72
1401;BME280;46518;48.842;8.926;2023-03-03T02:15:49;97283.16;;;2.89;76.34
1401;BME280;46518;48.842;8.926;2023-03-03T02:18:19;97283.41;;;3.00;75.53
1401;BME280;46518;48.842;8.926;2023-03-03T02:20:53;97278.84;;;3.02;75.91
1401;BME280;46518;48.842;8.926;2023-03-03T02:23:27;97277.22;;;3.01;75.81
1401;BME280;46518;48.842;8.926;2023-03-03T02:26:07;97282.22;;;3.03;75.33
1401;BME280;46518;48.842;8.926;2023-03-03T02:28:36;97287.63;;;3.01;75.09
1401;BME280;46518;48.842;8.926;2023-03-03T02:31:09;97283.78;;;2.91;75.43
1401;BME280;46518;48.842;8.926;2023-03-03T02:33:40;97278.34;;;2.86;76.02
1401;BME280;46518;48.842;8.926;2023-03-03T02:36:11;97285.28;;;2.78;76.08
1401;BME280;46518;48.842;8.926;2023-03-03T02:38:43;97285.03;;;2.67;75.89
1401;BME280;46518;48.842;8.926;2023-03-03T02:41:22;97284.88;;;2.75;76.61
1401;BME280;46518;48.842;8.926;2023-03-03T02:43:58;97284.16;;;2.88;75.80
1401;BME280;46518;48.842;8.926;2023-03-03T02:46:31;97285.78;;;2.95;75.52
1401;BME280;46518;48.842;8.926;2023-03-03T02:49:00;97293.25;;;3.05;75.03
1401;BME280;46518;48.842;8.926;2023-03-03T02:51:28;97291.63;;;3.04;74.66
1401;BME280;46518;48.842;8.926;2023-03-03T02:53:57;97294.84;;;3.06;74.60
1401;BME280;46518;48.842;8.926;2023-03-03T02:56:29;97294.03;;;3.06;74.73
1401;BME280;46518;48.842;8.926;2023-03-03T02:58:57;97299.84;;;3.08;74.89
1401;BME280;46518;48.842;8.926;2023-03-03T03:01:26;97296.88;;;3.11;74.55
1401;BME280;46518;48.842;8.926;2023-03-03T03:03:55;97295.50;;;3.15;74.28
1401;BME280;46518;48.842;8.926;2023-03-03T03:06:23;97304.00;;;3.02;73.93
1401;BME280;46518;48.842;8.926;2023-03-03T03:08:51;97306.25;;;3.05;74.59
1401;BME280;46518;48.842;8.926;2023-03-03T03:11:19;97306.19;;;2.98;73.48
1401;BME280;46518;48.842;8.926;2023-03-03T03:13:49;97301.19;;;2.97;73.33
1401;BME280;46518;48.842;8.926;2023-03-03T03:16:18;97301.16;;;2.90;72.76
1401;BME280;46518;48.842;8.926;2023-03-03T03:18:46;97298.34;;;2.85;73.06
1401;BME280;46518;48.842;8.926;2023-03-03T03:21:16;97300.72;;;2.80;73.27
1401;BME280;46518;48.842;8.926;2023-03-03T03:23:45;97298.25;;;2.72;73.29
1401;BME280;46518;48.842;8.926;2023-03-03T03:26:13;97302.63;;;2.71;72.64
1401;BME280;46518;48.842;8.926;2023-03-03T03:28:42;97300.25;;;2.70;73.39
1401;BME280;46518;48.842;8.926;2023-03-03T03:31:12;97299.28;;;2.49;73.39
1401;BME280;46518;48.842;8.926;2023-03-03T03:33:41;97310.06;;;2.46;73.49
1401;BME280;46518;48.842;8.926;2023-03-03T03:36:10;97309.09;;;2.47;73.79
1401;BME280;46518;48.842;8.926;2023-03-03T03:38:40;97299.03;;;2.37;74.37
1401;BME280;46518;48.842;8.926;2023-03-03T03:41:11;97310.78;;;2.33;75.17
1401;BME280;46518;48.842;8.926;2023-03-03T03:43:39;97302.56;;;2.30;75.64
1401;BME280;46518;48.842;8.926;2023-03-03T03:46:08;97305.41;;;2.35;76.32
1401;BME280;46518;48.842;8.926;2023-03-03T03:48:38;97309.28;;;2.46;75.84
1401;BME280;46518;48.842;8.926;2023-03-03T03:51:09;97310.53;;;2.56;76.11
1401;BME280;46518;48.842;8.926;2023-03-03T03:53:38;97313.81;;;2.65;75.63
1401;BME280;46518;48.842;8.926;2023-03-03T03:56:07;97310.75;;;2.55;77.45
1401;BME280;46518;48.842;8.926;2023-03-03T03:58:35;97304.25;;;2.44;78.05
1401;BME280;46518;48.842;8.926;2023-03-03T04:01:07;97305.63;;;2.40;79.15
1401;BME280;46518;48.842;8.926;2023-03-03T04:03:42;97302.84;;;2.42;79.53
1401;BME280;46518;48.842;8.926;2023-03-03T04:06:14;97306.34;;;2.27;80.31
1401;BME280;46518;48.842;8.926;2023-03-03T04:08:42;97295.72;;;2.22;80.61
1401;BME280;46518;48.842;8.926;2023-03-03T04:11:10;97301.56;;;2.31;81.01
1401;BME280;46518;48.842;8.926;2023-03-03T04:13:38;97303.59;;;2.35;80.17
1401;BME280;46518;48.842;8.926;2023-03-03T04:16:08;97301.97;;;2.34;80.46
1401;BME280;46518;48.842;8.926;2023-03-03T04:18:40;97306.50;;;2.47;79.93
1401;BME280;46518;48.842;8.926;2023-03-03T04:21:14;97304.53;;;2.56;79.50
1401;BME280;46518;48.842;8.926;2023-03-03T04:23:44;97310.41;;;2.65;79.13
1401;BME280;46518;48.842;8.926;2023-03-03T04:26:12;97313.97;;;2.64;78.33
1401;BME280;46518;48.842;8.926;2023-03-03T04:28:42;97312.25;;;2.71;78.40
1401;BME280;46518;48.842;8.926;2023-03-03T04:31:10;97323.09;;;2.81;77.55
1401;BME280;46518;48.842;8.926;2023-03-03T04:33:41;97305.13;;;2.86;77.05
1401;BME280;46518;48.842;8.926;2023-03-03T04:36:09;97306.13;;;2.85;77.23
1401;BME280;46518;48.842;8.926;2023-03-03T04:38:39;97307.88;;;2.78;76.89
1401;BME280;46518;48.842;8.926;2023-03-03T04:41:07;97311.94;;;2.87;76.77
1401;BME280;46518;48.842;8.926;2023-03-03T04:43:37;97312.19;;;2.92;76.00
1401;BME280;46518;48.842;8.926;2023-03-03T04:46:05;97320.22;;;2.97;75.33
1401;BME280;46518;48.842;8.926;2023-03-03T04:48:35;97322.41;;;3.00;75.28
1401;BME280;46518;48.842;8.926;2023-03-03T04:51:04;97321.22;;;3.03;74.85
1401;BME280;46518;48.842;8.926;2023-03-03T04:53:34;97322.47;;;3.07;73.95
1401;BME280;46518;48.842;8.926;2023-03-03T04:56:06;97313.47;;;3.10;74.00
1401;BME280;46518;48.842;8.926;2023-03-03T04:58:35;97316.25;;;3.08;72.84
1401;BME280;46518;48.842;8.926;2023-03-03T05:01:03;97327.22;;;3.03;72.40
1401;BME280;46518;48.842;8.926;2023-03-03T05:03:33;97333.22;;;3.04;72.48
1401;BME280;46518;48.842;8.926;2023-03-03T05:06:01;97339.47;;;3.10;72.25
1401;BME280;46518;48.842;8.926;2023-03-03T05:08:29;97330.84;;;3.02;72.08
1401;BME280;46518;48.842;8.926;2023-03-03T05:10:58;97327.88;;;3.12;72.13
1401;BME280;46518;48.842;8.926;2023-03-03T05:13:28;97332.25;;;3.12;71.44
1401;BME280;46518;48.842;8.926;2023-03-03T05:15:57;97328.88;;;3.11;71.20
1401;BME280;46518;48.842;8.926;2023-03-03T05:18:26;97323.22;;;3.01;70.92
1401;BME280;46518;48.842;8.926;2023-03-03T05:20:54;97324.00;;;3.01;71.83
1401;BME280;46518;48.842;8.926;2023-03-03T05:23:23;97327.22;;;3.03;71.49
1401;BME280;46518;48.842;8.926;2023-03-03T05:25:51;97334.81;;;2.98;71.74
1401;BME280;46518;48.842;8.926;2023-03-03T05:28:19;97327.97;;;2.91;72.38
1401;BME280;46518;48.842;8.926;2023-03-03T05:30:48;97337.97;;;2.94;72.46
1401;BME280;46518;48.842;8.926;2023-03-03T05:33:17;97329.41;;;3.00;71.98
1401;BME280;46518;48.842;8.926;2023-03-03T05:35:45;97330.06;;;3.09;72.79
1401;BME280;46518;48.842;8.926;2023-03-03T05:38:13;97339.75;;;3.28;72.93
1401;BME280;46518;48.842;8.926;2023-03-03T05:40:42;97345.81;;;3.35;72.49
1401;BME280;46518;48.842;8.926;2023-03-03T05:43:10;97357.00;;;3.36;72.31
1401;BME280;46518;48.842;8.926;2023-03-03T05:45:39;97346.19;;;3.32;71.79
1401;BME280;46518;48.842;8.926;2023-03-03T05:48:08;97356.22;;;3.42;71.50
1401;BME280;46518;48.842;8.926;2023-03-03T05:50:37;97339.34;;;3.24;71.09
1401;BME280;46518;48.842;8.926;2023-03-03T05:53:06;97358.59;;;3.30;71.04
1401;BME280;46518;48.842;8.926;2023-03-03T05:55:34;97359.78;;;3.34;71.25
1401;BME280;46518;48.842;8.926;2023-03-03T05:58:02;97366.22;;;3.38;71.58
1401;BME280;46518;48.842;8.926;2023-03-03T06:00:30;97349.59;;;3.33;71.01
1401;BME280;46518;48.842;8.926;2023-03-03T06:02:58;97360.63;;;3.41;71.98
1401;BME280;46518;48.842;8.926;2023-03-03T06:05:28;97359.47;;;3.51;72.04
1401;BME280;46518;48.842;8.926;2023-03-03T06:07:56;97368.28;;;3.50;71.32
1401;BME280;46518;48.842;8.926;2023-03-03T06:10:25;97371.69;;;3.50;71.56
1401;BME280;46518;48.842;8.926;2023-03-03T06:12:57;97368.50;;;3.55;71.17
1401;BME280;46518;48.842;8.926;2023-03-03T06:15:25;97374.13;;;3.58;70.79
1401;BME280;46518;48.842;8.926;2023-03-03T06:17:53;97373.09;;;3.59;70.84
1401;BME280;46518;48.842;8.926;2023-03-03T06:20:22;97372.94;;;3.61;70.92
1401;BME280;46518;48.842;8.926;2023-03-03T06:22:52;97375.69;;;3.53;71.24
1401;BME280;46518;48.842;8.926;2023-03-03T06:25:20;97371.91;;;3.55;70.46
1401;BME280;46518;48.842;8.926;2023-03-03T06:27:48;97378.66;;;3.43;70.75
1401;BME280;46518;48.842;8.926;2023-03-03T06:30:16;97386.50;;;3.50;70.78
1401;BME280;46518;48.842;8.926;2023-03-03T06:32:45;97386.72;;;3.55;70.86
1401;BME280;46518;48.842;8.926;2023-03-03T06:35:14;97388.53;;;3.61;71.57
1401;BME280;46518;48.842;8.926;2023-03-03T06:37:42;97399.56;;;3.63;71.05
1401;BME280;46518;48.842;8.926;2023-03-03T06:40:12;97400.31;;;3.57;71.41
1401;BME280;46518;48.842;8.926;2023-03-03T06:42:41;97401.34;;;3.56;70.70
1401;BME280;46518;48.842;8.926;2023-03-03T06:45:10;97404.69;;;3.43;71.93
1401;BME280;46518;48.842;8.926;2023-03-03T06:47:38;97401.34;;;3.56;71.20
1401;BME280;46518;48.842;8.926;2023-03-03T06:50:09;97404.34;;;3.59;71.55
1401;BME280;46518;48.842;8.926;2023-03-03T06:52:38;97403.75;;;3.57;71.17
1401;BME280;46518;48.842;8.926;2023-03-03T06:55:17;97409.13;;;3.56;70.78
1401;BME280;46518;48.842;8.926;2023-03-03T06:57:48;97414.28;;;3.49;71.42
1401;BME280;46518;48.842;8.926;2023-03-03T07:00:19;97405.31;;;3.52;71.42
1401;BME280;46518;48.842;8.926;2023-03-03T07:02:53;97410.31;;;3.53;71.54
1401;BME280;46518;48.842;8.926;2023-03-03T07:05:26;97411.13;;;3.54;72.16
1401;BME280;46518;48.842;8.926;2023-03-03T07:07:55;97411.78;;;3.62;72.29
1401;BME280;46518;48.842;8.926;2023-03-03T07:10:26;97420.00;;;3.66;71.63
1401;BME280;46518;48.842;8.926;2023-03-03T07:12:57;97421.00;;;3.72;72.01
1401;BME280;46518;48.842;8.926;2023-03-03T07:15:32;97420.66;;;3.75;71.46
1401;BME280;46518;48.842;8.926;2023-03-03T07:18:01;97426.66;;;3.82;70.87
1401;BME280;46518;48.842;8.926;2023-03-03T07:20:32;97427.66;;;3.81;71.01
1401;BME280;46518;48.842;8.926;2023-03-03T07:23:12;97438.13;;;3.87;70.81
1401;BME280;46518;48.842;8.926;2023-03-03T07:25:46;97430.53;;;3.93;70.95
1401;BME280;46518;48.842;8.926;2023-03-03T07:28:20;97423.91;;;3.90;70.61
1401;BME280;46518;48.842;8.926;2023-03-03T07:30:49;97425.34;;;4.06;70.37
1401;BME280;46518;48.842;8.926;2023-03-03T07:33:24;97427.19;;;4.12;70.43
1401;BME280;46518;48.842;8.926;2023-03-03T07:35:54;97423.00;;;4.18;70.49
1401;BME280;46518;48.842;8.926;2023-03-03T07:38:28;97433.59;;;4.16;70.65
1401;BME280;46518;48.842;8.926;2023-03-03T07:41:00;97433.75;;;3.95;70.42
1401;BME280;46518;48.842;8.926;2023-03-03T07:43:33;97436.53;;;3.93;69.43
1401;BME280;46518;48.842;8.926;2023-03-03T07:46:16;97435.31;;;3.89;68.79
1401;BME280;46518;48.842;8.926;2023-03-03T07:48:49;97432.25;;;3.79;68.88
1401;BME280;46518;48.842;8.926;2023-03-03T07:51:20;97433.31;;;3.84;69.31
1401;BME280;46518;48.842;8.926;2023-03-03T07:53:52;97429.25;;;3.82;68.76
1401;BME280;46518;48.842;8.926;2023-03-03T07:56:28;97438.91;;;3.88;67.28
1401;BME280;46518;48.842;8.926;2023-03-03T07:58:57;97448.56;;;4.01;65.78
1401;BME280;46518;48.842;8.926;2023-03-03T08:01:36;97446.22;;;4.19;65.52
1401;BME280;46518;48.842;8.926;2023-03-03T08:04:14;97450.91;;;4.44;64.47
1401;BME280;46518;48.842;8.926;2023-03-03T08:06:46;97458.53;;;4.59;63.90
1401;BME280;46518;48.842;8.926;2023-03-03T08:09:40;97449.53;;;4.68;63.23
1401;BME280;46518;48.842;8.926;2023-03-03T08:12:34;97452.72;;;4.57;62.03
1401;BME280;46518;48.842;8.926;2023-03-03T08:15:20;97462.56;;;4.54;61.87
1401;BME280;46518;48.842;8.926;2023-03-03T08:17:50;97458.97;;;4.69;62.05
1401;BME280;46518;48.842;8.926;2023-03-03T08:20:43;97458.56;;;4.79;62.08
1401;BME280;46518;48.842;8.926;2023-03-03T08:23:13;97453.97;;;4.87;62.08
1401;BME280;46518;48.842;8.926;2023-03-03T08:25:41;97456.56;;;4.94;62.11
1401;BME280;46518;48.842;8.926;2023-03-03T08:28:12;97452.34;;;5.06;62.30
1401;BME280;46518;48.842;8.926;2023-03-03T08:30:41;97449.34;;;5.16;62.37
1401;BME280;46518;48.842;8.926;2023-03-03T08:33:09;97448.56;;;5.22;62.06
1401;BME280;46518;48.842;8.926;2023-03-03T08:35:38;97455.78;;;5.27;61.48
1401;BME280;46518;48.842;8.926;2023-03-03T08:38:07;97450.53;;;5.40;61.22
1401;BME280;46518;48.842;8.926;2023-03-03T08:40:36;97442.72;;;5.27;61.07
1401;BME280;46518;48.842;8.926;2023-03-03T08:43:04;97448.09;;;5.38;61.10
1401;BME280;46518;48.842;8.926;2023-03-03T08:45:34;97453.13;;;5.40;60.91
1401;BME280;46518;48.842;8.926;2023-03-03T08:48:03;97451.72;;;5.44;60.35
1401;BME280;46518;48.842;8.926;2023-03-03T08:50:32;97447.50;;;5.43;60.14
1401;BME280;46518;48.842;8.926;2023-03-03T08:53:00;97451.50;;;5.46;60.31
1401;BME280;46518;48.842;8.926;2023-03-03T08:55:28;97457.75;;;5.45;60.23
1401;BME280;46518;48.842;8.926;2023-03-03T08:57:57;97460.56;;;5.43;60.22
1401;BME280;46518;48.842;8.926;2023-03-03T09:00:25;97459.16;;;5.40;60.80
1401;BME280;46518;48.842;8.926;2023-03-03T09:02:55;97459.34;;;5.39;60.80
1401;BME280;46518;48.842;8.926;2023-03-03T09:05:23;97459.75;;;5.36;60.72
1401;BME280;46518;48.842;8.926;2023-03-03T09:07:52;97463.19;;;5.30;60.90
1401;BME280;46518;48.842;8.926;2023-03-03T09:10:23;97466.78;;;5.42;60.72
1401;BME280;46518;48.842;8.926;2023-03-03T09:12:54;97468.19;;;5.45;60.79
1401;BME280;46518;48.842;8.926;2023-03-03T09:15:26;97474.00;;;5.40;60.65
1401;BME280;46518;48.842;8.926;2023-03-03T09:17:59;97480.00;;;5.54;60.58
1401;BME280;46518;48.842;8.926;2023-03-03T09:20:33;97483.41;;;5.61;60.70
1401;BME280;46518;48.842;8.926;2023-03-03T09:23:23;97485.19;;;5.74;60.88
1401;BME280;46518;48.842;8.926;2023-03-03T09:25:53;97484.97;;;5.82;60.68
1401;BME280;46518;48.842;8.926;2023-03-03T09:28:23;97496.78;;;5.91;60.36
1401;BME280;46518;48.842;8.926;2023-03-03T09:30:53;97500.44;;;5.97;60.66
1401;BME280;46518;48.842;8.926;2023-03-03T09:33:27;97499.63;;;5.83;59.30
1401;BME280;46518;48.842;8.926;2023-03-03T09:36:02;97492.41;;;5.85;59.79
1401;BME280;46518;48.842;8.926;2023-03-03T09:38:32;97493.59;;;5.89;59.87
1401;BME280;46518;48.842;8.926;2023-03-03T09:44:12;97494.16;;;6.11;60.18
1401;BME280;46518;48.842;8.926;2023-03-03T09:46:54;97493.94;;;6.19;60.38
1401;BME280;46518;48.842;8.926;2023-03-03T09:49:31;97489.47;;;6.26;60.18
1401;BME280;46518;48.842;8.926;2023-03-03T09:52:14;97487.84;;;6.32;59.69
1401;BME280;46518;48.842;8.926;2023-03-03T09:54:54;97463.72;;;6.30;59.48
1401;BME280;46518;48.842;8.926;2023-03-03T09:57:34;97492.97;;;6.52;58.77
1401;BME280;46518;48.842;8.926;2023-03-03T10:00:19;97477.44;;;6.57;58.28
1401;BME280;46518;48.842;8.926;2023-03-03T10:03:00;97487.47;;;6.60;57.63
1401;BME280;46518;48.842;8.926;2023-03-03T10:05:40;97492.69;;;6.67;57.58
1401;BME280;46518;48.842;8.926;2023-03-03T10:08:32;97487.56;;;6.79;57.60
1401;BME280;46518;48.842;8.926;2023-03-03T10:11:12;97495.09;;;6.94;57.80
1401;BME280;46518;48.842;8.926;2023-03-03T10:14:03;97489.72;;;7.13;57.64
1401;BME280;46518;48.842;8.926;2023-03-03T10:16:57;97494.44;;;7.30;57.07
1401;BME280;46518;48.842;8.926;2023-03-03T10:19:37;97496.53;;;7.46;56.67
1401;BME280;46518;48.842;8.926;2023-03-03T10:22:16;97495.22;;;7.55;56.46
1401;BME280;46518;48.842;8.926;2023-03-03T10:25:00;97498.78;;;7.61;55.36
1401;BME280;46518;48.842;8.926;2023-03-03T10:27:44;97494.00;;;7.76;54.86
1401;BME280;46518;48.842;8.926;2023-03-03T10:30:20;97500.94;;;7.89;54.20
1401;BME280;46518;48.842;8.926;2023-03-03T10:33:11;97500.41;;;7.81;52.62
1401;BME280;46518;48.842;8.926;2023-03-03T10:39:02;97504.28;;;7.96;52.43
1401;BME280;46518;48.842;8.926;2023-03-03T10:44:34;97507.97;;;8.07;52.53
1401;BME280;46518;48.842;8.926;2023-03-03T10:47:29;97505.50;;;8.12;52.21
1401;BME280;46518;48.842;8.926;2023-03-03T10:50:09;97505.94;;;8.09;52.12
1401;BME280;46518;48.842;8.926;2023-03-03T10:52:43;97502.44;;;8.15;52.24
1401;BME280;46518;48.842;8.926;2023-03-03T10:55:36;97502.38;;;8.22;51.79
1401;BME280;46518;48.842;8.926;2023-03-03T10:58:30;97499.50;;;8.24;51.60
1401;BME280;46518;48.842;8.926;2023-03-03T11:01:09;97502.56;;;8.20;51.31
1401;BME280;46518;48.842;8.926;2023-03-03T11:04:20;97500.34;;;8.24;50.95
1401;BME280;46518;48.842;8.926;2023-03-03T11:06:55;97500.22;;;8.31;51.29
1401;BME280;46518;48.842;8.926;2023-03-03T11:09:38;97507.16;;;8.25;50.52
1401;BME280;46518;48.842;8.926;2023-03-03T11:12:19;97506.09;;;8.14;50.64
1401;BME280;46518;48.842;8.926;2023-03-03T11:15:02;97502.63;;;8.32;50.68
1401;BME280;46518;48.842;8.926;2023-03-03T11:17:48;97500.38;;;8.36;50.87
1401;BME280;46518;48.842;8.926;2023-03-03T11:20:30;97504.31;;;8.45;50.54
1401;BME280;46518;48.842;8.926;2023-03-03T11:23:11;97505.84;;;8.53;50.31
1401;BME280;46518;48.842;8.926;2023-03-03T11:29:36;97507.41;;;8.72;50.42
1401;BME280;46518;48.842;8.926;2023-03-03T11:32:20;97505.94;;;8.88;50.38
1401;BME280;46518;48.842;8.926;2023-03-03T11:34:56;97501.53;;;9.00;49.89
1401;BME280;46518;48.842;8.926;2023-03-03T11:37:30;97501.06;;;9.03;49.94
1401;BME280;46518;48.842;8.926;2023-03-03T11:40:09;97499.03;;;8.94;48.77
1401;BME280;46518;48.842;8.926;2023-03-03T11:42:49;97500.69;;;8.88;49.25
1401;BME280;46518;48.842;8.926;2023-03-03T11:45:25;97490.03;;;9.01;49.40
1401;BME280;46518;48.842;8.926;2023-03-03T11:47:59;97494.16;;;9.09;49.74
1401;BME280;46518;48.842;8.926;2023-03-03T11:50:35;97486.34;;;9.02;49.00
1401;BME280;46518;48.842;8.926;2023-03-03T11:53:19;97487.06;;;9.10;49.41
1401;BME280;46518;48.842;8.926;2023-03-03T11:55:56;97483.94;;;9.01;49.49
1401;BME280;46518;48.842;8.926;2023-03-03T11:58:29;97479.50;;;9.13;49.41
1401;BME280;46518;48.842;8.926;2023-03-03T12:01:04;97479.91;;;9.28;48.97
1401;BME280;46518;48.842;8.926;2023-03-03T12:03:39;97479.19;;;9.45;48.78
1401;BME280;46518;48.842;8.926;2023-03-03T12:06:17;97474.06;;;9.38;49.12
1401;BME280;46518;48.842;8.926;2023-03-03T12:09:05;97472.56;;;9.42;48.22
1401;BME280;46518;48.842;8.926;2023-03-03T12:11:40;97471.31;;;9.57;48.11
1401;BME280;46518;48.842;8.926;2023-03-03T12:14:21;97467.69;;;9.34;47.13
1401;BME280;46518;48.842;8.926;2023-03-03T12:16:57;97464.00;;;9.12;47.77
1401;BME280;46518;48.842;8.926;2023-03-03T12:19:32;97465.81;;;9.23;48.68
1401;BME280;46518;48.842;8.926;2023-03-03T12:22:16;97464.00;;;9.35;48.58
1401;BME280;46518;48.842;8.926;2023-03-03T12:24:59;97462.06;;;9.42;48.80
1401;BME280;46518;48.842;8.926;2023-03-03T12:27:35;97462.75;;;9.49;48.52
1401;BME280;46518;48.842;8.926;2023-03-03T12:30:13;97458.28;;;9.50;47.98
1401;BME280;46518;48.842;8.926;2023-03-03T12:33:04;97460.47;;;9.41;47.80
1401;BME280;46518;48.842;8.926;2023-03-03T12:35:42;97458.53;;;9.48;48.34
1401;BME280;46518;48.842;8.926;2023-03-03T12:38:22;97452.56;;;9.65;48.60
1401;BME280;46518;48.842;8.926;2023-03-03T12:40:58;97445.56;;;9.82;48.02
1401;BME280;46518;48.842;8.926;2023-03-03T12:43:42;97449.66;;;10.02;47.93
1401;BME280;46518;48.842;8.926;2023-03-03T12:46:18;97449.66;;;10.02;47.92
1401;BME280;46518;48.842;8.926;2023-03-03T12:48:55;97449.84;;;10.12;47.42
1401;BME280;46518;48.842;8.926;2023-03-03T12:51:33;97440.56;;;10.21;46.60
1401;BME280;46518;48.842;8.926;2023-03-03T12:54:17;97438.03;;;10.26;46.79
1401;BME280;46518;48.842;8.926;2023-03-03T12:56:49;97448.97;;;10.35;46.39
1401;BME280;46518;48.842;8.926;2023-03-03T12:59:25;97450.59;;;10.24;46.32
1401;BME280;46518;48.842;8.926;2023-03-03T13:02:13;97449.88;;;10.41;45.98
1401;BME280;46518;48.842;8.926;2023-03-03T13:04:52;97443.28;;;10.26;45.01
1401;BME280;46518;48.842;8.926;2023-03-03T13:07:26;97446.13;;;10.25;44.78
1401;BME280;46518;48.842;8.926;2023-03-03T13:10:07;97438.63;;;10.28;46.11
1401;BME280;46518;48.842;8.926;2023-03-03T13:12:43;97446.88;;;10.49;46.09
1401;BME280;46518;48.842;8.926;2023-03-03T13:15:19;97449.75;;;10.47;44.43
1401;BME280;46518;48.842;8.926;2023-03-03T13:18:14;97448.38;;;10.45;45.00
1401;BME280;46518;48.842;8.926;2023-03-03T13:20:53;97439.66;;;10.56;45.70
1401;BME280;46518;48.842;8.926;2023-03-03T13:23:33;97440.47;;;10.73;45.57
1401;BME280;46518;48.842;8.926;2023-03-03T13:26:09;97445.47;;;10.75;44.85
1401;BME280;46518;48.842;8.926;2023-03-03T13:28:42;97440.09;;;10.53;43.62
1401;BME280;46518;48.842;8.926;2023-03-03T13:31:20;97436.94;;;10.68;44.66
1401;BME280;46518;48.842;8.926;2023-03-03T13:33:52;97435.38;;;10.84;44.84
1401;BME280;46518;48.842;8.926;2023-03-03T13:36:26;97440.25;;;10.63;43.97
1401;BME280;46518;48.842;8.926;2023-03-03T13:38:59;97437.28;;;10.71;44.28
1401;BME280;46518;48.842;8.926;2023-03-03T13:41:37;97427.84;;;10.75;44.44
1401;BME280;46518;48.842;8.926;2023-03-03T13:44:10;97426.97;;;10.70;43.44
1401;BME280;46518;48.842;8.926;2023-03-03T13:46:44;97431.13;;;10.83;44.37
1401;BME280;46518;48.842;8.926;2023-03-03T13:49:28;97427.28;;;10.90;44.48
1401;BME280;46518;48.842;8.926;2023-03-03T13:52:05;97422.34;;;10.94;44.31
1401;BME280;46518;48.842;8.926;2023-03-03T13:54:52;97423.78;;;11.01;44.12
1401;BME280;46518;48.842;8.926;2023-03-03T13:57:49;97423.38;;;11.10;44.01
1401;BME280;46518;48.842;8.926;2023-03-03T14:00:31;97415.56;;;10.98;43.99
1401;BME280;46518;48.842;8.926;2023-03-03T14:03:26;97415.63;;;11.03;43.94
1401;BME280;46518;48.842;8.926;2023-03-03T14:06:01;97405.66;;;11.05;43.96
1401;BME280;46518;48.842;8.926;2023-03-03T14:08:43;97418.22;;;10.81;43.89